Time;durP1;ratioP1;P1;durP2;ratioP2;P2;SDS_P1;SDS_P2;PMS_P1;PMS_P2;Temp;Humidity;BMP_temperature;BMP_pressure;BME280_temperature;BME280_humidity;BME280_pressure;Samples;Min_cycle;Max_cycle;Signal;HPM_P1;HPM_P2
2023/04/12 00:00:10;;;;;;;0.70;0.60;;;9.10;79.00;;;;;;4961758;28;20654;-73
2023/04/12 00:02:40;;;;;;;1.00;0.90;;;9.10;81.00;;;;;;4968256;28;20644;-73
2023/04/12 00:05:08;;;;;;;0.90;0.80;;;9.00;80.00;;;;;;4958687;28;20706;-73
2023/04/12 00:07:37;;;;;;;3.70;0.87;;;9.00;79.40;;;;;;4967809;28;20661;-72
2023/04/12 00:10:05;;;;;;;1.10;0.80;;;9.00;80.00;;;;;;4967419;28;20640;-73
2023/04/12 00:12:31;;;;;;;0.63;0.63;;;8.90;81.90;;;;;;4967550;28;20635;-73
2023/04/12 00:15:00;;;;;;;1.97;1.77;;;8.90;80.90;;;;;;4968419;28;20636;-73
2023/04/12 00:17:27;;;;;;;1.53;1.30;;;8.80;82.70;;;;;;4968354;28;21041;-73
2023/04/12 00:19:56;;;;;;;0.67;0.50;;;8.80;82.30;;;;;;4967403;28;20742;-73
2023/04/12 00:22:23;;;;;;;0.83;0.80;;;8.80;81.40;;;;;;4968356;28;20691;-73
2023/04/12 00:24:49;;;;;;;0.70;0.60;;;8.80;81.80;;;;;;4967732;28;20731;-73
2023/04/12 00:27:16;;;;;;;0.93;0.93;;;8.80;82.80;;;;;;4967794;28;20672;-73
2023/04/12 00:29:43;;;;;;;1.40;1.30;;;8.90;84.70;;;;;;4951788;28;20639;-73
2023/04/12 00:32:10;;;;;;;0.77;0.50;;;8.90;84.90;;;;;;4965084;28;21135;-73
2023/04/12 00:34:37;;;;;;;0.33;0.33;;;8.80;87.50;;;;;;4968913;28;20638;-73
2023/04/12 00:37:05;;;;;;;1.10;0.70;;;8.70;89.20;;;;;;4967981;28;20678;-73
2023/04/12 00:39:32;;;;;;;0.68;0.68;;;8.60;91.00;;;;;;4967893;28;20641;-73
2023/04/12 00:42:03;;;;;;;8.43;1.80;;;8.60;91.90;;;;;;4964215;28;20230;-73
2023/04/12 00:44:31;;;;;;;0.40;0.40;;;8.50;92.60;;;;;;4968155;28;20640;-73
2023/04/12 00:46:58;;;;;;;0.75;0.73;;;8.50;93.00;;;;;;4967768;28;20710;-73
2023/04/12 00:49:29;;;;;;;1.70;1.35;;;8.40;94.40;;;;;;4970698;28;20235;-73
2023/04/12 00:52:03;;;;;;;1.15;1.05;;;8.40;95.50;;;;;;4971227;28;20555;-73
2023/04/12 00:54:32;;;;;;;2.80;1.00;;;8.40;96.10;;;;;;4971612;28;20294;-73
2023/04/12 00:56:59;;;;;;;0.93;0.90;;;8.30;95.80;;;;;;4971038;28;20342;-73
2023/04/12 00:59:26;;;;;;;0.82;0.82;;;8.30;96.60;;;;;;4963167;28;20208;-73
2023/04/12 01:01:53;;;;;;;5.43;1.80;;;8.30;97.10;;;;;;4968039;28;20228;-73
2023/04/12 01:04:21;;;;;;;6.05;0.77;;;8.30;97.50;;;;;;4969020;28;20203;-73
2023/04/12 01:07:02;;;;;;;1.15;0.77;;;8.30;98.00;;;;;;4970619;28;20228;-73
2023/04/12 01:09:45;;;;;;;1.25;0.75;;;8.30;98.70;;;;;;4971033;28;20282;-73
2023/04/12 01:12:21;;;;;;;0.75;0.73;;;8.20;98.80;;;;;;4951983;29;20248;-73
2023/04/12 01:14:55;;;;;;;2.13;0.80;;;8.30;99.30;;;;;;4966297;28;20749;-73
2023/04/12 01:17:29;;;;;;;0.93;0.75;;;8.30;99.20;;;;;;4967148;28;20231;-73
2023/04/12 01:20:12;;;;;;;2.15;1.25;;;8.20;99.50;;;;;;4970216;28;20226;-73
2023/04/12 01:23:09;;;;;;;1.52;1.15;;;8.10;99.90;;;;;;4970955;28;20588;-72
2023/04/12 01:25:59;;;;;;;1.52;1.10;;;8.10;99.90;;;;;;4961488;28;20589;-73
2023/04/12 01:28:34;;;;;;;0.40;0.40;;;8.20;99.90;;;;;;4969480;28;20250;-73
2023/04/12 01:31:03;;;;;;;0.60;0.52;;;8.20;99.90;;;;;;4970693;28;20231;-73
2023/04/12 01:33:31;;;;;;;1.20;1.00;;;8.20;99.90;;;;;;4959089;28;20297;-73
2023/04/12 01:36:00;;;;;;;0.45;0.45;;;8.20;99.90;;;;;;4970807;28;20231;-73
2023/04/12 01:38:28;;;;;;;1.15;0.70;;;8.10;99.90;;;;;;4969687;28;20239;-73
2023/04/12 01:40:55;;;;;;;1.02;0.90;;;8.10;99.90;;;;;;4966618;28;20229;-73
2023/04/12 01:43:23;;;;;;;1.20;0.60;;;8.10;99.90;;;;;;4970283;28;20216;-73
2023/04/12 01:45:52;;;;;;;2.20;1.40;;;8.10;99.90;;;;;;4970579;28;20271;-73
2023/04/12 01:48:20;;;;;;;0.98;0.65;;;8.00;99.90;;;;;;4970044;28;20197;-73
2023/04/12 01:51:06;;;;;;;2.55;1.45;;;8.00;99.90;;;;;;4970290;28;20737;-73
2023/04/12 01:53:43;;;;;;;2.05;1.30;;;8.00;99.90;;;;;;4970662;28;20219;-74
2023/04/12 01:56:11;;;;;;;1.05;0.63;;;8.10;99.90;;;;;;4969553;28;20590;-73
2023/04/12 01:58:42;;;;;;;0.90;0.90;;;8.00;99.90;;;;;;4969113;28;20755;-73
2023/04/12 02:01:12;;;;;;;1.02;0.88;;;8.10;99.90;;;;;;4969730;28;20223;-73
2023/04/12 02:03:42;;;;;;;1.15;1.02;;;8.10;99.90;;;;;;4970443;28;20212;-73
2023/04/12 02:06:11;;;;;;;1.30;1.20;;;8.20;99.90;;;;;;4969542;28;20306;-73
2023/04/12 02:08:40;;;;;;;3.78;0.80;;;8.10;99.90;;;;;;4968678;28;20205;-73
2023/04/12 02:11:10;;;;;;;1.30;0.90;;;8.00;99.90;;;;;;4969694;28;20712;-73
2023/04/12 02:13:38;;;;;;;8.25;1.52;;;8.10;99.90;;;;;;4970500;28;20208;-74
2023/04/12 02:16:06;;;;;;;1.27;1.02;;;8.10;99.90;;;;;;4970201;28;20231;-73
2023/04/12 02:18:35;;;;;;;1.33;1.23;;;8.10;99.90;;;;;;4969365;28;20232;-73
2023/04/12 02:21:02;;;;;;;1.92;0.80;;;8.10;99.90;;;;;;4969819;28;20646;-73
2023/04/12 02:23:29;;;;;;;1.52;1.42;;;8.10;99.90;;;;;;4968443;28;20689;-73
2023/04/12 02:25:55;;;;;;;1.50;0.90;;;8.10;99.90;;;;;;4969789;28;20305;-73
2023/04/12 02:28:22;;;;;;;1.67;1.00;;;8.10;99.90;;;;;;4968506;28;20666;-73
2023/04/12 02:30:52;;;;;;;2.45;0.98;;;8.10;99.90;;;;;;4963412;28;20224;-73
2023/04/12 02:33:24;;;;;;;2.20;1.13;;;8.10;99.90;;;;;;4964621;28;20266;-73
2023/04/12 02:35:53;;;;;;;1.90;0.93;;;8.10;99.90;;;;;;4968785;28;20230;-73
2023/04/12 02:38:21;;;;;;;0.90;0.90;;;8.20;99.90;;;;;;4968834;28;20658;-73
2023/04/12 02:40:49;;;;;;;1.42;1.33;;;8.20;99.90;;;;;;4963782;28;20606;-73
2023/04/12 02:43:16;;;;;;;0.75;0.75;;;8.10;99.90;;;;;;4967816;28;20204;-73
2023/04/12 02:45:43;;;;;;;0.85;0.70;;;8.20;99.90;;;;;;4969336;28;20314;-73
2023/04/12 02:48:10;;;;;;;2.17;1.40;;;8.10;99.90;;;;;;4968853;28;20187;-73
2023/04/12 02:50:37;;;;;;;0.82;0.63;;;8.20;99.90;;;;;;4968760;28;20224;-73
2023/04/12 02:53:06;;;;;;;3.35;0.75;;;8.10;99.90;;;;;;4969563;28;20199;-73
2023/04/12 02:55:35;;;;;;;0.82;0.60;;;8.10;99.90;;;;;;4969356;28;20227;-73
2023/04/12 02:58:02;;;;;;;1.20;1.20;;;8.10;99.90;;;;;;4968987;28;20635;-73
2023/04/12 03:00:29;;;;;;;1.77;1.60;;;8.00;99.90;;;;;;4968867;28;20228;-73
2023/04/12 03:03:00;;;;;;;1.10;0.98;;;8.10;99.90;;;;;;4968372;28;20679;-73
2023/04/12 03:05:28;;;;;;;0.95;0.88;;;8.00;99.90;;;;;;4969359;28;20305;-73
2023/04/12 03:07:56;;;;;;;1.52;1.30;;;8.10;99.90;;;;;;4969145;28;20200;-73
2023/04/12 03:10:25;;;;;;;1.08;0.90;;;8.10;99.90;;;;;;4968873;28;20209;-73
2023/04/12 03:12:52;;;;;;;0.65;0.65;;;8.10;99.90;;;;;;4968370;28;20613;-73
2023/04/12 03:15:22;;;;;;;1.55;0.88;;;8.10;99.90;;;;;;4968442;28;20207;-73
2023/04/12 03:17:50;;;;;;;0.98;0.95;;;8.00;99.90;;;;;;4968967;28;20243;-73
2023/04/12 03:20:19;;;;;;;2.15;1.70;;;8.00;99.90;;;;;;4968296;28;20211;-73
2023/04/12 03:22:46;;;;;;;1.23;0.88;;;8.10;99.90;;;;;;4968635;28;20287;-73
2023/04/12 03:25:13;;;;;;;1.30;1.25;;;8.00;99.90;;;;;;4968362;28;20200;-73
2023/04/12 03:27:42;;;;;;;4.05;1.48;;;8.00;99.90;;;;;;4969077;28;20212;-73
2023/04/12 03:30:10;;;;;;;1.10;1.00;;;7.90;99.90;;;;;;4967588;28;20607;-73
2023/04/12 03:32:37;;;;;;;3.33;1.55;;;7.80;99.90;;;;;;4959946;28;20748;-73
2023/04/12 03:35:06;;;;;;;1.38;1.10;;;7.80;99.90;;;;;;4963292;28;20260;-73
2023/04/12 03:37:33;;;;;;;0.93;0.80;;;7.90;99.90;;;;;;4968720;28;20230;-73
2023/04/12 03:40:00;;;;;;;3.35;1.30;;;7.80;99.90;;;;;;4967961;28;20208;-73
2023/04/12 03:42:28;;;;;;;2.28;1.42;;;7.90;99.90;;;;;;4964100;28;20242;-73
2023/04/12 03:44:56;;;;;;;0.93;0.93;;;8.00;99.90;;;;;;4968350;28;20555;-73
2023/04/12 03:47:23;;;;;;;1.60;1.50;;;7.90;99.90;;;;;;4968802;28;20250;-73
2023/04/12 03:49:53;;;;;;;2.20;1.63;;;8.00;99.90;;;;;;4968334;28;20207;-73
2023/04/12 03:52:20;;;;;;;2.30;1.48;;;8.00;99.90;;;;;;4968130;28;20228;-73
2023/04/12 03:54:47;;;;;;;5.75;2.15;;;8.00;99.90;;;;;;4968300;28;20218;-73
2023/04/12 03:57:15;;;;;;;1.92;1.75;;;8.00;99.90;;;;;;4968311;28;20231;-73
2023/04/12 03:59:41;;;;;;;1.73;1.55;;;8.00;99.90;;;;;;4967985;28;20255;-73
2023/04/12 04:02:10;;;;;;;2.25;1.65;;;8.00;99.90;;;;;;4967779;28;20230;-73
2023/04/12 04:04:37;;;;;;;1.67;1.58;;;7.90;99.90;;;;;;4965018;28;20314;-73
2023/04/12 04:07:04;;;;;;;0.95;0.80;;;7.90;99.90;;;;;;4968481;28;20228;-73
2023/04/12 04:09:31;;;;;;;2.50;1.60;;;7.90;99.90;;;;;;4967309;28;20859;-73
2023/04/12 04:11:57;;;;;;;1.58;1.48;;;7.90;99.90;;;;;;4968066;28;20833;-73
2023/04/12 04:14:26;;;;;;;1.27;1.20;;;7.90;99.90;;;;;;4967920;28;20198;-73
2023/04/12 04:16:54;;;;;;;2.00;1.80;;;7.80;99.90;;;;;;4968526;28;20226;-73
2023/04/12 04:19:22;;;;;;;2.03;1.88;;;7.90;99.90;;;;;;4967552;28;20226;-73
2023/04/12 04:21:49;;;;;;;2.25;2.05;;;7.90;99.90;;;;;;4967693;28;20242;-73
2023/04/12 04:24:18;;;;;;;2.78;1.75;;;7.90;99.90;;;;;;4970764;28;20279;-72
2023/04/12 04:26:44;;;;;;;1.20;1.10;;;7.90;99.90;;;;;;4971044;28;20301;-73
2023/04/12 04:29:11;;;;;;;1.67;1.45;;;7.90;99.90;;;;;;4971520;28;20290;-73
2023/04/12 04:31:38;;;;;;;3.05;1.90;;;7.90;99.90;;;;;;4958855;28;20241;-73
2023/04/12 04:34:05;;;;;;;1.52;1.42;;;7.80;99.90;;;;;;4972429;28;20606;-73
2023/04/12 04:36:36;;;;;;;3.25;1.73;;;7.80;99.90;;;;;;4971410;28;20230;-73
2023/04/12 04:39:04;;;;;;;1.60;1.48;;;7.90;99.90;;;;;;4971081;28;20330;-73
2023/04/12 04:41:33;;;;;;;3.17;2.05;;;7.80;99.90;;;;;;4971033;28;20249;-73
2023/04/12 04:44:00;;;;;;;1.80;1.70;;;7.80;99.90;;;;;;4971986;28;20759;-72
2023/04/12 04:46:29;;;;;;;1.67;1.42;;;7.80;99.90;;;;;;4971118;28;20240;-72
2023/04/12 04:48:57;;;;;;;1.23;1.13;;;7.80;99.90;;;;;;4971007;28;20207;-72
2023/04/12 04:51:24;;;;;;;1.70;1.60;;;7.70;99.90;;;;;;4971068;28;20234;-72
2023/04/12 04:53:52;;;;;;;1.38;1.27;;;7.80;99.90;;;;;;4971081;28;20204;-72
2023/04/12 04:56:21;;;;;;;1.98;1.75;;;7.80;99.90;;;;;;4970609;28;20231;-72
2023/04/12 04:58:48;;;;;;;2.28;2.08;;;7.80;99.90;;;;;;4967963;28;20252;-71
2023/04/12 05:01:15;;;;;;;2.28;1.60;;;7.80;99.90;;;;;;4964169;28;20216;-71
2023/04/12 05:03:43;;;;;;;2.33;1.25;;;7.90;99.90;;;;;;4970404;28;20199;-71
2023/04/12 05:06:10;;;;;;;1.90;1.80;;;7.90;99.90;;;;;;4966493;28;20275;-71
2023/04/12 05:08:37;;;;;;;2.83;2.28;;;7.90;99.90;;;;;;4970696;28;20227;-71
2023/04/12 05:11:06;;;;;;;1.40;1.30;;;7.90;99.90;;;;;;4970408;28;20232;-71
2023/04/12 05:13:33;;;;;;;1.50;1.40;;;7.90;99.90;;;;;;4971084;28;20215;-71
2023/04/12 05:15:59;;;;;;;1.83;1.73;;;7.80;99.90;;;;;;4970053;28;20237;-71
2023/04/12 05:18:26;;;;;;;1.70;1.60;;;7.80;99.90;;;;;;4969882;28;20254;-71
2023/04/12 05:20:53;;;;;;;1.95;1.85;;;7.80;99.90;;;;;;4971147;28;20228;-71
2023/04/12 05:23:20;;;;;;;1.30;1.20;;;7.80;99.90;;;;;;4971315;28;20195;-71
2023/04/12 05:25:48;;;;;;;1.67;1.40;;;7.80;99.90;;;;;;4970415;28;20232;-71
2023/04/12 05:28:17;;;;;;;1.60;1.40;;;7.90;99.90;;;;;;4969799;28;20749;-72
2023/04/12 05:30:45;;;;;;;2.83;1.80;;;7.90;99.90;;;;;;4970370;28;20236;-71
2023/04/12 05:33:12;;;;;;;1.50;1.40;;;7.90;99.90;;;;;;4970019;28;20570;-71
2023/04/12 05:35:38;;;;;;;1.80;1.65;;;7.90;99.90;;;;;;4971234;28;20230;-71
2023/04/12 05:38:05;;;;;;;1.30;1.20;;;7.90;99.90;;;;;;4969739;28;20210;-74
2023/04/12 05:40:32;;;;;;;1.85;1.23;;;7.90;99.90;;;;;;4963484;28;20236;-74
2023/04/12 05:42:59;;;;;;;2.00;1.88;;;7.90;99.90;;;;;;4960240;28;20201;-76
2023/04/12 05:45:27;;;;;;;1.95;1.85;;;7.90;99.90;;;;;;4961630;28;20224;-74
2023/04/12 05:47:54;;;;;;;1.52;1.45;;;7.80;99.90;;;;;;4960744;28;20203;-75
2023/04/12 05:50:21;;;;;;;1.40;1.30;;;7.80;99.90;;;;;;4954491;28;20209;-75
2023/04/12 05:52:50;;;;;;;2.05;1.23;;;7.90;99.90;;;;;;4957606;28;20202;-75
2023/04/12 05:55:22;;;;;;;0.93;0.93;;;7.90;99.90;;;;;;4958508;28;20209;-75
2023/04/12 05:57:50;;;;;;;1.90;1.80;;;7.90;99.90;;;;;;4960251;28;20199;-76
2023/04/12 06:00:17;;;;;;;1.50;1.40;;;7.90;99.90;;;;;;4957685;28;20232;-75
2023/04/12 06:02:46;;;;;;;1.10;1.00;;;7.90;99.90;;;;;;4960587;28;20200;-76
2023/04/12 06:05:15;;;;;;;2.55;1.40;;;7.90;99.90;;;;;;4961329;28;20677;-75
2023/04/12 06:07:47;;;;;;;2.85;2.65;;;7.90;99.90;;;;;;4960908;28;20649;-74
2023/04/12 06:10:15;;;;;;;1.95;1.77;;;7.90;99.90;;;;;;4958810;28;20238;-75
2023/04/12 06:12:42;;;;;;;3.47;1.05;;;7.90;99.90;;;;;;4959986;28;20200;-74
2023/04/12 06:15:11;;;;;;;2.28;2.08;;;7.90;99.90;;;;;;4958394;28;20201;-75
2023/04/12 06:17:38;;;;;;;1.30;0.93;;;7.90;99.90;;;;;;4960024;28;20207;-75
2023/04/12 06:20:08;;;;;;;1.60;1.10;;;7.90;99.90;;;;;;4955917;28;20250;-75
2023/04/12 06:22:35;;;;;;;2.03;0.85;;;8.00;99.90;;;;;;4961424;28;20240;-75
2023/04/12 06:25:02;;;;;;;0.63;0.60;;;8.00;99.90;;;;;;4959798;28;20203;-74
2023/04/12 06:27:29;;;;;;;1.05;0.95;;;8.00;99.90;;;;;;4964327;28;20263;-74
2023/04/12 06:29:56;;;;;;;0.85;0.80;;;8.00;99.90;;;;;;4960238;28;20283;-74
2023/04/12 06:32:23;;;;;;;1.98;1.30;;;7.90;99.90;;;;;;4954673;28;20299;-74
2023/04/12 06:34:49;;;;;;;1.20;0.93;;;8.10;99.90;;;;;;4955377;28;20208;-74
2023/04/12 06:37:17;;;;;;;0.60;0.60;;;8.10;99.90;;;;;;4961591;28;20600;-74
2023/04/12 06:39:44;;;;;;;2.90;0.70;;;8.10;99.90;;;;;;4960475;28;20229;-75
2023/04/12 06:42:11;;;;;;;1.40;1.10;;;8.10;99.90;;;;;;4963300;28;20696;-74
2023/04/12 06:44:38;;;;;;;1.25;1.10;;;8.20;99.90;;;;;;4955662;28;20308;-75
2023/04/12 06:47:05;;;;;;;9.57;1.15;;;8.20;99.90;;;;;;4958282;28;20275;-75
2023/04/12 06:49:32;;;;;;;1.55;1.35;;;8.20;99.90;;;;;;4960390;28;20208;-74
2023/04/12 06:51:58;;;;;;;0.80;0.80;;;8.20;99.90;;;;;;4957784;28;20221;-75
2023/04/12 06:54:26;;;;;;;5.72;1.65;;;8.30;99.90;;;;;;4958213;28;20534;-75
2023/04/12 06:56:53;;;;;;;0.95;0.85;;;8.30;99.90;;;;;;4947702;28;20228;-75
2023/04/12 06:59:24;;;;;;;1.50;1.30;;;8.30;99.90;;;;;;4956795;28;20235;-79
2023/04/12 07:01:50;;;;;;;1.50;0.90;;;8.40;99.90;;;;;;4960147;28;20311;-75
2023/04/12 07:04:17;;;;;;;1.10;0.77;;;8.50;99.90;;;;;;4960410;28;20199;-73
2023/04/12 07:06:44;;;;;;;0.70;0.70;;;8.50;99.90;;;;;;4967020;28;20772;-74
2023/04/12 07:09:11;;;;;;;2.08;0.93;;;8.50;99.90;;;;;;4960102;28;20319;-74
2023/04/12 07:11:39;;;;;;;0.95;0.95;;;8.60;99.90;;;;;;4964495;28;20217;-78
2023/04/12 07:14:06;;;;;;;1.30;1.20;;;8.70;99.90;;;;;;4959503;28;20231;-77
2023/04/12 07:16:33;;;;;;;2.50;1.10;;;8.70;99.90;;;;;;4958315;28;21001;-74
2023/04/12 07:19:00;;;;;;;1.43;0.70;;;8.70;99.90;;;;;;4957788;28;20772;-75
2023/04/12 07:21:27;;;;;;;2.00;1.00;;;8.70;99.90;;;;;;4966868;28;20667;-76
2023/04/12 07:23:54;;;;;;;1.02;0.98;;;8.70;99.90;;;;;;4960498;28;20632;-75
2023/04/12 07:26:21;;;;;;;1.60;1.48;;;8.60;99.90;;;;;;4960230;28;20279;-77
2023/04/12 07:28:49;;;;;;;1.30;1.20;;;8.60;99.90;;;;;;4960850;28;20196;-77
2023/04/12 07:31:16;;;;;;;2.58;1.42;;;8.70;99.90;;;;;;4957724;28;20678;-77
2023/04/12 07:33:43;;;;;;;0.97;0.97;;;8.80;99.90;;;;;;4965990;28;20278;-78
2023/04/12 07:36:10;;;;;;;0.93;0.93;;;8.80;99.90;;;;;;4968348;28;20658;-77
2023/04/12 07:38:37;;;;;;;0.70;0.70;;;8.80;99.90;;;;;;4967979;28;20664;-77
2023/04/12 07:41:05;;;;;;;1.37;1.27;;;8.90;99.90;;;;;;4965739;28;21084;-74
2023/04/12 07:43:32;;;;;;;0.50;0.50;;;8.90;99.90;;;;;;4959220;28;20663;-76
2023/04/12 07:46:03;;;;;;;1.47;0.60;;;9.00;99.90;;;;;;4962734;28;20664;-76
2023/04/12 07:48:30;;;;;;;1.57;1.03;;;9.10;99.90;;;;;;4956589;28;20641;-74
2023/04/12 07:50:56;;;;;;;0.77;0.70;;;9.10;99.90;;;;;;4960832;28;21091;-74
2023/04/12 07:53:25;;;;;;;1.90;0.80;;;9.20;99.90;;;;;;4963664;28;21249;-75
2023/04/12 07:55:53;;;;;;;0.83;0.83;;;9.30;99.90;;;;;;4962234;28;20651;-74
2023/04/12 07:58:21;;;;;;;3.03;1.03;;;9.30;99.90;;;;;;4961012;28;20642;-75
2023/04/12 08:00:48;;;;;;;0.57;0.57;;;9.30;99.90;;;;;;4965417;28;21038;-75
2023/04/12 08:03:18;;;;;;;0.63;0.60;;;9.30;99.90;;;;;;4963682;28;20647;-74
2023/04/12 08:05:48;;;;;;;1.20;1.10;;;9.40;99.90;;;;;;4962878;28;20701;-73
2023/04/12 08:08:15;;;;;;;1.60;1.40;;;9.40;99.90;;;;;;4971749;28;20636;-73
2023/04/12 08:10:41;;;;;;;0.70;0.60;;;9.50;99.90;;;;;;4971462;28;20759;-74
2023/04/12 08:13:08;;;;;;;1.27;1.17;;;9.50;99.90;;;;;;4966159;28;20726;-74
2023/04/12 08:15:35;;;;;;;2.30;0.93;;;9.50;99.90;;;;;;4953079;28;21265;-74
2023/04/12 08:18:02;;;;;;;1.43;1.33;;;9.50;99.90;;;;;;4969776;28;20639;-73
2023/04/12 08:20:31;;;;;;;0.73;0.73;;;9.50;99.90;;;;;;4962724;28;20679;-75
2023/04/12 08:22:58;;;;;;;0.57;0.53;;;9.60;99.90;;;;;;4960550;28;20629;-73
2023/04/12 08:25:25;;;;;;;11.47;2.10;;;9.60;99.90;;;;;;4960963;28;20649;-75
2023/04/12 08:27:52;;;;;;;10.77;1.53;;;9.70;99.90;;;;;;4966346;28;20643;-73
2023/04/12 08:30:25;;;;;;;0.80;0.80;;;9.70;99.90;;;;;;4959783;28;20635;-73
2023/04/12 08:32:52;;;;;;;1.13;1.03;;;9.70;99.90;;;;;;4962178;28;20664;-74
2023/04/12 08:35:19;;;;;;;1.20;1.10;;;9.80;99.90;;;;;;4969755;28;20632;-75
2023/04/12 08:37:47;;;;;;;0.97;0.90;;;9.90;99.90;;;;;;4971708;28;20717;-77
2023/04/12 08:40:15;;;;;;;0.37;0.33;;;9.80;99.90;;;;;;4964692;28;21236;-76
2023/04/12 08:42:42;;;;;;;1.10;0.77;;;9.90;99.90;;;;;;4970907;28;20631;-77
2023/04/12 08:45:10;;;;;;;0.83;0.73;;;9.90;99.90;;;;;;4971224;28;20731;-75
2023/04/12 08:47:39;;;;;;;0.83;0.77;;;10.00;99.90;;;;;;4964899;28;20644;-73
2023/04/12 08:50:08;;;;;;;1.10;1.00;;;10.00;99.90;;;;;;4964463;28;20639;-76
2023/04/12 08:52:36;;;;;;;0.90;0.60;;;10.00;99.90;;;;;;4968835;28;20624;-73
2023/04/12 08:55:07;;;;;;;1.00;0.70;;;10.10;99.90;;;;;;4959387;28;20633;-73
2023/04/12 08:57:35;;;;;;;1.13;1.03;;;10.10;99.90;;;;;;4962584;28;20644;-75
2023/04/12 09:00:03;;;;;;;1.07;0.60;;;10.10;99.90;;;;;;4964367;28;20676;-77
2023/04/12 09:02:30;;;;;;;1.20;1.00;;;10.10;99.90;;;;;;4964097;28;20672;-73
2023/04/12 09:04:57;;;;;;;0.60;0.50;;;10.10;99.90;;;;;;4965254;28;20765;-74
2023/04/12 09:07:26;;;;;;;1.30;1.00;;;10.10;99.90;;;;;;4965161;28;20687;-74
2023/04/12 09:09:54;;;;;;;0.67;0.67;;;10.10;99.90;;;;;;4960577;28;21168;-75
2023/04/12 09:12:23;;;;;;;1.83;1.00;;;10.10;99.90;;;;;;4962019;28;20691;-73
2023/04/12 09:15:06;;;;;;;1.33;0.73;;;10.00;99.90;;;;;;4961909;28;21203;-73
2023/04/12 09:17:51;;;;;;;1.03;0.90;;;10.20;99.90;;;;;;4962425;28;20642;-75
2023/04/12 09:20:25;;;;;;;1.87;1.53;;;10.30;99.90;;;;;;4952696;28;20679;-75
2023/04/12 09:22:54;;;;;;;1.17;0.87;;;10.40;99.90;;;;;;4960512;28;20636;-75
2023/04/12 09:25:44;;;;;;;1.83;1.03;;;10.50;99.90;;;;;;4963447;28;21181;-73
2023/04/12 09:28:23;;;;;;;0.53;0.53;;;10.60;99.90;;;;;;4951246;28;20653;-75
2023/04/12 09:30:51;;;;;;;2.00;1.00;;;10.60;99.90;;;;;;4961248;28;20648;-75
2023/04/12 09:33:33;;;;;;;27.40;5.37;;;10.70;99.90;;;;;;4959605;28;20709;-73
2023/04/12 09:36:01;;;;;;;1.57;1.47;;;10.90;99.90;;;;;;4961210;28;20663;-73
2023/04/12 09:38:28;;;;;;;3.63;3.43;;;11.00;99.90;;;;;;4964409;28;21122;-73
2023/04/12 09:40:54;;;;;;;1.60;1.10;;;11.10;99.90;;;;;;4965848;28;20675;-73
2023/04/12 09:46:16;;;;;;;1.87;1.50;;;11.20;99.90;;;;;;4841171;27;7649219;-73
2023/04/12 09:48:50;;;;;;;2.13;0.80;;;11.20;99.90;;;;;;5096515;28;20198;-74
2023/04/12 09:51:25;;;;;;;0.60;0.60;;;11.20;99.90;;;;;;5089351;28;20656;-73
2023/04/12 09:53:53;;;;;;;0.97;0.97;;;11.10;99.90;;;;;;5092167;28;20639;-73
2023/04/12 09:56:22;;;;;;;1.10;0.97;;;11.20;99.90;;;;;;5104178;28;20652;-73
2023/04/12 09:58:53;;;;;;;2.23;0.97;;;11.20;99.90;;;;;;5104080;28;20702;-72
2023/04/12 10:01:22;;;;;;;2.40;1.17;;;11.10;99.90;;;;;;5094554;28;20652;-73
2023/04/12 10:03:49;;;;;;;1.37;0.73;;;11.10;99.90;;;;;;5102065;28;21363;-73
2023/04/12 10:06:17;;;;;;;1.17;1.07;;;11.10;99.90;;;;;;5118011;28;21314;-73
2023/04/12 10:08:46;;;;;;;2.83;1.10;;;11.20;99.90;;;;;;5104832;28;20638;-73
2023/04/12 10:11:13;;;;;;;0.70;0.70;;;11.30;99.90;;;;;;5104369;28;20650;-73
2023/04/12 10:13:42;;;;;;;0.97;0.77;;;11.40;99.90;;;;;;5098699;28;20627;-73
2023/04/12 10:16:09;;;;;;;1.50;0.83;;;11.60;99.90;;;;;;5091788;28;20652;-73
2023/04/12 10:18:38;;;;;;;1.03;0.93;;;11.70;99.90;;;;;;5090799;28;21199;-73
2023/04/12 10:21:07;;;;;;;1.03;0.63;;;11.70;99.90;;;;;;5103417;28;20769;-74
2023/04/12 10:23:34;;;;;;;0.80;0.80;;;11.80;99.90;;;;;;5097986;28;21009;-73
2023/04/12 10:26:03;;;;;;;1.13;0.80;;;11.90;99.90;;;;;;5094089;28;20674;-73
2023/04/12 10:28:30;;;;;;;0.90;0.70;;;12.00;99.90;;;;;;5103178;28;20637;-73
2023/04/12 10:30:57;;;;;;;2.50;1.83;;;12.10;99.90;;;;;;5096248;28;20749;-73
2023/04/12 10:33:26;;;;;;;1.77;1.30;;;12.20;99.90;;;;;;5114374;28;20632;-73
2023/04/12 10:36:02;;;;;;;0.70;0.70;;;12.30;99.90;;;;;;5103031;28;20655;-73
2023/04/12 10:38:31;;;;;;;0.77;0.77;;;12.50;99.90;;;;;;5116459;28;20641;-73
2023/04/12 10:41:12;;;;;;;1.40;1.17;;;12.50;99.90;;;;;;5099828;28;20687;-73
2023/04/12 10:43:40;;;;;;;1.10;0.83;;;12.50;99.90;;;;;;5098323;28;20622;-72
2023/04/12 10:46:06;;;;;;;0.97;0.90;;;12.60;99.90;;;;;;5114714;28;20658;-73
2023/04/12 10:48:35;;;;;;;1.20;0.70;;;12.60;99.90;;;;;;5090936;28;20628;-72
2023/04/12 10:51:24;;;;;;;0.77;0.77;;;12.60;99.90;;;;;;5102616;28;20677;-73
2023/04/12 10:53:51;;;;;;;0.40;0.40;;;12.70;99.90;;;;;;5100686;28;20671;-72
2023/04/12 10:56:42;;;;;;;0.60;0.60;;;12.60;99.90;;;;;;5099526;28;20666;-72
2023/04/12 10:59:10;;;;;;;0.80;0.80;;;12.60;99.90;;;;;;5054825;28;21092;-72
2023/04/12 11:01:37;;;;;;;0.97;0.97;;;12.70;99.90;;;;;;5086096;28;20661;-73
2023/04/12 11:04:09;;;;;;;1.23;1.03;;;13.00;99.90;;;;;;5083705;28;20694;-74
2023/04/12 11:06:56;;;;;;;0.97;0.87;;;13.30;99.90;;;;;;5086198;28;20650;-73
2023/04/12 11:09:25;;;;;;;1.20;0.80;;;13.40;99.90;;;;;;5080974;28;20635;-71
2023/04/12 11:11:55;;;;;;;0.63;0.57;;;13.60;99.90;;;;;;5073246;28;20685;-71
2023/04/12 11:14:28;;;;;;;0.77;0.70;;;13.60;99.90;;;;;;5081718;28;21260;-72
2023/04/12 11:17:23;;;;;;;0.67;0.53;;;13.90;99.90;;;;;;5075633;28;20652;-73
2023/04/12 11:19:52;;;;;;;0.70;0.70;;;14.00;98.60;;;;;;5077364;28;20944;-74
2023/04/12 11:22:22;;;;;;;0.77;0.50;;;13.80;98.10;;;;;;5082350;28;20728;-72
2023/04/12 11:24:50;;;;;;;3.93;0.60;;;13.80;98.30;;;;;;5079926;28;20796;-72
2023/04/12 11:27:20;;;;;;;0.60;0.60;;;14.00;99.30;;;;;;5078086;28;20654;-72
2023/04/12 11:29:50;;;;;;;0.50;0.50;;;14.10;97.80;;;;;;5077060;28;20659;-72
2023/04/12 11:32:17;;;;;;;0.50;0.50;;;14.00;96.70;;;;;;5080975;28;21215;-71
2023/04/12 11:34:46;;;;;;;0.43;0.33;;;14.00;97.90;;;;;;5077901;28;20628;-72
2023/04/12 11:37:14;;;;;;;0.70;0.43;;;13.70;96.40;;;;;;5075380;28;20644;-72
2023/04/12 11:39:43;;;;;;;9.00;1.37;;;13.70;97.70;;;;;;5081925;28;20963;-72
2023/04/12 11:42:15;;;;;;;1.10;0.70;;;13.80;96.70;;;;;;5073338;28;20656;-72
2023/04/12 11:44:43;;;;;;;0.67;0.57;;;13.80;97.60;;;;;;5078985;28;20658;-72
2023/04/12 11:47:15;;;;;;;0.50;0.40;;;14.00;96.90;;;;;;5083521;28;20661;-72
2023/04/12 11:49:46;;;;;;;0.50;0.50;;;14.40;97.70;;;;;;5077895;28;20624;-72
2023/04/12 11:52:14;;;;;;;0.87;0.67;;;14.60;96.00;;;;;;5077253;28;20680;-72
2023/04/12 11:54:47;;;;;;;5.50;1.07;;;14.70;96.90;;;;;;5080002;28;20726;-72
2023/04/12 11:57:15;;;;;;;0.50;0.30;;;14.80;94.90;;;;;;5077754;28;20666;-72
2023/04/12 11:59:44;;;;;;;3.23;0.97;;;15.10;95.50;;;;;;5081687;28;20658;-72
2023/04/12 12:02:12;;;;;;;1.37;0.70;;;15.10;95.70;;;;;;5079111;28;21070;-72
2023/04/12 12:04:41;;;;;;;1.97;0.53;;;14.90;94.20;;;;;;5077237;28;21186;-72
2023/04/12 12:07:11;;;;;;;1.00;0.60;;;14.70;93.60;;;;;;5069746;28;21236;-72
2023/04/12 12:09:38;;;;;;;0.40;0.40;;;14.70;95.10;;;;;;5066324;28;20669;-72
2023/04/12 12:12:07;;;;;;;1.47;0.70;;;14.70;94.80;;;;;;5085858;28;20654;-72
2023/04/12 12:14:35;;;;;;;0.70;0.57;;;14.70;93.80;;;;;;5074252;28;20646;-72
2023/04/12 12:17:09;;;;;;;0.50;0.30;;;14.60;94.70;;;;;;5078607;28;20669;-72
2023/04/12 12:19:38;;;;;;;2.17;0.53;;;14.50;93.80;;;;;;5094194;28;20646;-72
2023/04/12 12:22:15;;;;;;;0.40;0.40;;;14.60;93.90;;;;;;5085093;28;20763;-72
2023/04/12 12:24:47;;;;;;;0.50;0.40;;;14.50;93.80;;;;;;5076202;28;20717;-72
2023/04/12 12:27:18;;;;;;;0.70;0.50;;;14.50;93.40;;;;;;5077227;28;20651;-72
2023/04/12 12:29:49;;;;;;;1.90;0.73;;;14.60;93.60;;;;;;5066759;28;20627;-72
2023/04/12 12:32:17;;;;;;;0.50;0.50;;;14.60;93.40;;;;;;5071874;28;22553;-72
2023/04/12 12:34:50;;;;;;;1.27;0.60;;;14.60;93.20;;;;;;5080481;28;20645;-72
2023/04/12 12:37:21;;;;;;;0.40;0.40;;;14.30;93.70;;;;;;5087397;28;20664;-72
2023/04/12 12:40:10;;;;;;;0.50;0.50;;;14.30;94.70;;;;;;5067413;28;20634;-72
2023/04/12 12:42:45;;;;;;;0.60;0.50;;;14.70;94.20;;;;;;5074777;28;21209;-72
2023/04/12 12:45:12;;;;;;;0.83;0.60;;;15.20;94.50;;;;;;5081299;28;20753;-71
2023/04/12 12:47:47;;;;;;;0.60;0.50;;;15.60;92.60;;;;;;5078165;28;20623;-71
2023/04/12 12:50:15;;;;;;;0.57;0.30;;;15.80;92.60;;;;;;5073401;28;20632;-71
2023/04/12 12:52:42;;;;;;;1.17;0.47;;;16.00;91.70;;;;;;5080888;28;22478;-72
2023/04/12 12:55:10;;;;;;;0.40;0.40;;;15.70;90.30;;;;;;5078220;28;21057;-71
2023/04/12 12:57:38;;;;;;;1.13;0.40;;;15.50;91.30;;;;;;5068558;28;20635;-72
2023/04/12 13:00:06;;;;;;;0.40;0.20;;;15.20;91.40;;;;;;5069585;28;20725;-73
2023/04/12 13:02:33;;;;;;;1.00;0.67;;;15.00;91.50;;;;;;5072796;28;20628;-73
2023/04/12 13:05:01;;;;;;;0.60;0.50;;;15.00;92.70;;;;;;5079768;28;20930;-73